createdAt,value
2019-06-27T00:01:40.543Z,98700.43
2019-06-27T00:04:12.132Z,98711.12
2019-06-27T00:06:44.038Z,98707.45
2019-06-27T00:09:16.684Z,98706.47
2019-06-27T00:11:48.283Z,98703.03
2019-06-27T00:14:19.835Z,98699.80
2019-06-27T00:16:53.025Z,98699.65
2019-06-27T00:19:24.597Z,98705.98
2019-06-27T00:21:56.232Z,98703.14
2019-06-27T00:24:27.781Z,98699.98
2019-06-27T00:26:59.381Z,98702.66
2019-06-27T00:29:30.948Z,98702.32
2019-06-27T00:32:02.534Z,98697.16
2019-06-27T00:34:34.103Z,98697.87
2019-06-27T00:37:05.685Z,98705.61
2019-06-27T00:39:38.312Z,98713.10
2019-06-27T00:42:09.926Z,98705.91
2019-06-27T00:44:41.521Z,98707.76
2019-06-27T00:47:13.082Z,98709.91
2019-06-27T00:49:44.653Z,98707.76
2019-06-27T00:52:16.200Z,98705.61
2019-06-27T00:54:47.804Z,98718.95
2019-06-27T00:57:19.430Z,98708.63
2019-06-27T00:59:50.977Z,98715.45
2019-06-27T01:02:22.600Z,98713.45
2019-06-27T01:04:55.120Z,98719.66
2019-06-27T01:07:26.651Z,98714.19
2019-06-27T01:10:01.141Z,98719.55
2019-06-27T01:12:31.497Z,98721.88
2019-06-27T01:15:03.243Z,98720.42
2019-06-27T01:17:34.769Z,98722.93
2019-06-27T01:20:06.792Z,98719.65
2019-06-27T01:22:38.467Z,98723.19
2019-06-27T01:25:10.455Z,98727.03
2019-06-27T01:27:42.029Z,98730.05
2019-06-27T01:30:15.214Z,98737.75
2019-06-27T01:32:46.827Z,98732.76
2019-06-27T01:35:18.505Z,98738.27
2019-06-27T01:37:50.236Z,98730.78
2019-06-27T01:40:22.406Z,98743.09
2019-06-27T01:42:53.988Z,98744.47
2019-06-27T01:45:31.297Z,98740.02
2019-06-27T01:48:02.869Z,98742.52
2019-06-27T01:50:34.460Z,98741.23
2019-06-27T01:53:07.122Z,98738.36
2019-06-27T01:55:38.701Z,98738.88
2019-06-27T01:58:10.280Z,98742.25
2019-06-27T02:00:41.853Z,98739.75
2019-06-27T02:03:13.460Z,98738.77
2019-06-27T02:05:45.122Z,98739.96
2019-06-27T02:08:17.795Z,98744.95
2019-06-27T02:10:49.366Z,98754.62
2019-06-27T02:13:20.952Z,98745.30
2019-06-27T02:15:52.512Z,98741.13
2019-06-27T02:18:24.136Z,98738.63
2019-06-27T02:20:55.707Z,98747.31
2019-06-27T02:23:27.276Z,98738.47
2019-06-27T02:25:58.936Z,98734.64
2019-06-27T02:28:30.494Z,98733.30
2019-06-27T02:31:02.098Z,98736.83
2019-06-27T02:33:33.669Z,98740.65
2019-06-27T02:36:05.274Z,98745.30
2019-06-27T02:38:36.844Z,98754.50
2019-06-27T02:41:08.461Z,98751.32
2019-06-27T02:43:40.019Z,98750.02
2019-06-27T02:46:11.591Z,98748.52
2019-06-27T02:48:43.160Z,98753.55
2019-06-27T02:51:14.772Z,98742.06
2019-06-27T02:53:46.331Z,98735.39
2019-06-27T02:56:17.923Z,98744.08
2019-06-27T02:58:49.493Z,98733.41
2019-06-27T03:01:21.110Z,98739.73
2019-06-27T03:03:52.736Z,98742.41
2019-06-27T03:06:24.316Z,98746.54
2019-06-27T03:08:55.885Z,98754.36
2019-06-27T03:11:27.450Z,98740.73
2019-06-27T03:13:59.082Z,98742.41
2019-06-27T03:16:30.622Z,98748.05
2019-06-27T03:19:02.241Z,98749.55
2019-06-27T03:21:33.786Z,98741.55
2019-06-27T03:24:05.392Z,98745.89
2019-06-27T03:26:37.015Z,98748.55
2019-06-27T03:29:08.575Z,98743.87
2019-06-27T03:31:40.149Z,98748.21
2019-06-27T03:34:11.721Z,98746.70
2019-06-27T03:36:43.305Z,98745.72
2019-06-27T03:39:14.936Z,98739.73
2019-06-27T03:41:46.524Z,98743.42
2019-06-27T03:44:18.117Z,98743.59
2019-06-27T03:46:49.730Z,98739.59
2019-06-27T03:49:22.388Z,98752.58
2019-06-27T03:51:53.981Z,98751.45
2019-06-27T03:54:26.628Z,98749.26
2019-06-27T03:56:58.237Z,98752.73
2019-06-27T03:59:29.812Z,98747.92
2019-06-27T04:02:01.397Z,98767.57
2019-06-27T04:04:33.025Z,98760.91
2019-06-27T04:07:04.611Z,98764.74
2019-06-27T04:09:36.193Z,98760.58
2019-06-27T04:12:07.786Z,98752.55
2019-06-27T04:14:39.374Z,98760.72
2019-06-27T04:17:10.942Z,98760.86
2019-06-27T04:19:42.528Z,98766.53
2019-06-27T04:22:17.333Z,98765.98
2019-06-27T04:24:47.413Z,98761.81
2019-06-27T04:27:18.988Z,98771.14
2019-06-27T04:29:50.629Z,98766.63
2019-06-27T04:32:22.240Z,98773.13
2019-06-27T04:34:53.791Z,98762.62
2019-06-27T04:37:25.397Z,98758.94
2019-06-27T04:39:57.060Z,98763.92
2019-06-27T04:42:28.619Z,98762.89
2019-06-27T04:45:00.263Z,98769.21
2019-06-27T04:47:31.861Z,98767.87
2019-06-27T04:50:03.473Z,98767.52
2019-06-27T04:52:35.015Z,98766.94
2019-06-27T04:55:06.853Z,98769.72
2019-06-27T04:57:38.381Z,98776.20
2019-06-27T05:00:10.154Z,98768.65
2019-06-27T05:02:41.738Z,98768.59
2019-06-27T05:05:13.307Z,98770.03
2019-06-27T05:07:44.880Z,98776.68
2019-06-27T05:10:16.467Z,98779.80
2019-06-27T05:12:48.053Z,98779.25
2019-06-27T05:15:19.631Z,98780.02
2019-06-27T05:17:51.225Z,98781.11
2019-06-27T05:20:22.804Z,98782.88
2019-06-27T05:22:54.389Z,98785.81
2019-06-27T05:25:29.428Z,98787.88
2019-06-27T05:27:59.256Z,98790.72
2019-06-27T05:30:30.827Z,98796.10
2019-06-27T05:33:02.420Z,98795.44
2019-06-27T05:35:34.046Z,98786.09
2019-06-27T05:38:05.625Z,98794.44
2019-06-27T05:40:37.167Z,98790.53
2019-06-27T05:43:08.755Z,98792.72
2019-06-27T05:45:40.329Z,98792.91
2019-06-27T05:48:12.097Z,98797.77
2019-06-27T05:50:43.677Z,98791.68
2019-06-27T05:53:15.271Z,98791.14
2019-06-27T05:55:46.886Z,98801.38
2019-06-27T05:58:18.491Z,98805.47
2019-06-27T06:00:50.075Z,98796.48
2019-06-27T06:03:21.711Z,98801.51
2019-06-27T06:05:53.266Z,98797.89
2019-06-27T06:08:24.850Z,98796.51
2019-06-27T06:10:56.438Z,98801.43
2019-06-27T06:13:28.019Z,98800.94
2019-06-27T06:16:01.146Z,98819.28
2019-06-27T06:18:33.055Z,98821.03
2019-06-27T06:21:04.664Z,98825.73
2019-06-27T06:23:36.259Z,98830.76
2019-06-27T06:26:07.880Z,98829.80
2019-06-27T06:28:39.449Z,98836.48
2019-06-27T06:31:11.056Z,98834.89
2019-06-27T06:33:42.634Z,98847.73
2019-06-27T06:36:14.207Z,98845.99
2019-06-27T06:38:45.790Z,98854.28
2019-06-27T06:41:17.372Z,98847.04
2019-06-27T06:43:48.949Z,98852.52
2019-06-27T06:46:20.656Z,98851.32
2019-06-27T06:48:52.200Z,98850.75
2019-06-27T06:51:23.800Z,98853.86
2019-06-27T06:53:55.352Z,98854.33
2019-06-27T06:56:26.945Z,98859.50
2019-06-27T06:58:58.518Z,98868.23
2019-06-27T07:01:30.123Z,98866.07
2019-06-27T07:04:01.703Z,98861.55
2019-06-27T07:06:33.281Z,98856.88
2019-06-27T07:09:05.315Z,98865.55
2019-06-27T07:11:36.892Z,98860.20
2019-06-27T07:14:08.714Z,98868.69
2019-06-27T07:16:40.299Z,98869.58
2019-06-27T07:19:11.932Z,98872.86
2019-06-27T07:21:43.514Z,98879.43
2019-06-27T07:24:15.142Z,98882.86
2019-06-27T07:26:46.725Z,98878.66
2019-06-27T07:29:18.302Z,98876.00
2019-06-27T07:31:49.905Z,98877.37
2019-06-27T07:34:21.486Z,98873.73
2019-06-27T07:36:53.065Z,98873.27
2019-06-27T07:39:24.634Z,98883.55
2019-06-27T07:41:56.194Z,98881.41
2019-06-27T07:44:27.780Z,98883.64
2019-06-27T07:46:59.352Z,98881.55
2019-06-27T07:49:33.150Z,98892.34
2019-06-27T07:52:04.323Z,98887.77
2019-06-27T07:54:35.988Z,98887.30
2019-06-27T07:57:07.555Z,98887.16
2019-06-27T07:59:39.123Z,98885.38
2019-06-27T08:02:10.693Z,98881.73
2019-06-27T08:04:42.440Z,98879.14
2019-06-27T08:07:14.031Z,98880.66
2019-06-27T08:09:45.667Z,98877.46
2019-06-27T08:12:17.244Z,98881.14
2019-06-27T08:14:48.820Z,98882.83
2019-06-27T08:17:20.441Z,98891.45
2019-06-27T08:19:52.009Z,98875.41
2019-06-27T08:22:23.584Z,98876.44
2019-06-27T08:24:55.169Z,98867.99
2019-06-27T08:27:26.778Z,98868.98
2019-06-27T08:29:58.349Z,98871.81
2019-06-27T08:32:29.991Z,98867.24
2019-06-27T08:35:01.628Z,98866.17
2019-06-27T08:37:33.188Z,98859.23
2019-06-27T08:40:05.366Z,98865.44
2019-06-27T08:42:36.984Z,98859.28
2019-06-27T08:45:08.894Z,98871.91
2019-06-27T08:47:40.474Z,98866.34
2019-06-27T08:50:13.308Z,98863.20
2019-06-27T08:52:45.000Z,98861.72
2019-06-27T08:55:16.561Z,98864.18
2019-06-27T08:57:48.153Z,98861.38
2019-06-27T09:00:20.372Z,98864.32
2019-06-27T09:02:52.291Z,98865.52
2019-06-27T09:05:24.824Z,98866.29
2019-06-27T09:07:56.407Z,98868.30
2019-06-27T09:10:28.026Z,98867.04
2019-06-27T09:12:59.636Z,98861.34
2019-06-27T09:15:31.172Z,98862.43
2019-06-27T09:18:02.762Z,98864.50
2019-06-27T09:20:35.342Z,98862.22
2019-06-27T09:23:06.928Z,98861.69
2019-06-27T09:25:38.549Z,98867.72
2019-06-27T09:28:10.160Z,98869.11
2019-06-27T09:30:41.814Z,98863.88
2019-06-27T09:33:13.337Z,98868.89
2019-06-27T09:35:44.955Z,98863.05
2019-06-27T09:38:16.498Z,98864.67
2019-06-27T09:40:48.172Z,98862.89
2019-06-27T09:43:19.759Z,98867.20
2019-06-27T09:45:51.335Z,98866.48
2019-06-27T09:48:23.015Z,98859.94
2019-06-27T09:50:54.613Z,98865.13
2019-06-27T09:53:27.223Z,98862.02
2019-06-27T09:55:58.867Z,98864.91
2019-06-27T09:58:30.430Z,98865.79
2019-06-27T10:01:05.721Z,98865.94
2019-06-27T10:03:35.332Z,98861.45
2019-06-27T10:06:06.925Z,98863.77
2019-06-27T10:08:38.580Z,98856.05
2019-06-27T10:11:10.539Z,98858.59
2019-06-27T10:13:42.103Z,98853.55
2019-06-27T10:16:13.741Z,98851.98
2019-06-27T10:18:45.323Z,98853.73
2019-06-27T10:21:16.912Z,98858.86
2019-06-27T10:23:48.692Z,98863.05
2019-06-27T10:26:20.365Z,98855.39
2019-06-27T10:28:51.962Z,98853.42
2019-06-27T10:31:23.546Z,98848.39
2019-06-27T10:33:55.383Z,98849.59
2019-06-27T10:36:27.032Z,98843.69
2019-06-27T10:38:58.890Z,98839.61
2019-06-27T10:41:30.516Z,98834.78
2019-06-27T10:44:02.082Z,98839.61
2019-06-27T10:46:33.656Z,98839.98
2019-06-27T10:49:05.554Z,98838.04
2019-06-27T10:51:37.146Z,98836.44
2019-06-27T10:54:08.809Z,98836.71
2019-06-27T10:56:40.449Z,98836.20
2019-06-27T10:59:12.254Z,98836.14
2019-06-27T11:01:43.890Z,98831.28
2019-06-27T11:04:15.476Z,98831.49
2019-06-27T11:06:47.048Z,98833.34
2019-06-27T11:09:18.642Z,98832.73
2019-06-27T11:11:50.218Z,98828.57
2019-06-27T11:14:22.243Z,98829.36
2019-06-27T11:16:53.842Z,98826.16
2019-06-27T11:19:25.492Z,98828.75
2019-06-27T11:21:57.083Z,98827.78
2019-06-27T11:24:28.728Z,98817.77
2019-06-27T11:27:00.434Z,98815.00
2019-06-27T11:29:32.023Z,98812.77
2019-06-27T11:32:03.608Z,98811.34
2019-06-27T11:34:35.395Z,98810.20
2019-06-27T11:37:07.044Z,98803.45
2019-06-27T11:39:38.701Z,98802.06
2019-06-27T11:42:10.402Z,98802.18
2019-06-27T11:44:42.004Z,98802.96
2019-06-27T11:47:13.731Z,98799.16
2019-06-27T11:49:45.368Z,98795.75
2019-06-27T11:52:16.969Z,98797.34
2019-06-27T11:54:48.578Z,98799.11
2019-06-27T11:57:20.220Z,98796.23
2019-06-27T11:59:51.871Z,98803.06
2019-06-27T12:02:23.494Z,98805.59
2019-06-27T12:04:55.108Z,98802.25
2019-06-27T12:07:26.749Z,98798.53
2019-06-27T12:09:58.371Z,98801.31
2019-06-27T12:12:29.981Z,98802.20
2019-06-27T12:15:01.651Z,98797.18
2019-06-27T12:17:33.310Z,98799.82
2019-06-27T12:20:05.968Z,98797.89
2019-06-27T12:22:37.692Z,98794.45
2019-06-27T12:25:12.011Z,98795.72
2019-06-27T12:27:43.645Z,98793.19
2019-06-27T12:30:15.544Z,98797.48
2019-06-27T12:32:52.299Z,98797.80
2019-06-27T12:35:20.454Z,98793.73
2019-06-27T12:37:52.060Z,98791.45
2019-06-27T12:40:24.614Z,98795.47
2019-06-27T12:42:56.206Z,98785.59
2019-06-27T12:45:28.883Z,98785.06
2019-06-27T12:48:06.499Z,98786.81
2019-06-27T12:50:33.888Z,98793.05
2019-06-27T12:53:05.478Z,98781.05
2019-06-27T12:55:37.132Z,98783.38
2019-06-27T12:58:08.982Z,98777.72
2019-06-27T13:00:40.622Z,98775.13
2019-06-27T13:03:12.203Z,98781.25
2019-06-27T13:05:43.853Z,98779.77
2019-06-27T13:08:15.418Z,98778.88
2019-06-27T13:10:47.090Z,98771.27
2019-06-27T13:13:18.722Z,98772.69
2019-06-27T13:15:50.303Z,98775.17
2019-06-27T13:18:21.916Z,98774.70
2019-06-27T13:20:58.343Z,98771.88
2019-06-27T13:23:26.738Z,98770.68
2019-06-27T13:25:58.308Z,98764.33
2019-06-27T13:28:29.923Z,98764.80
2019-06-27T13:31:01.565Z,98765.25
2019-06-27T13:33:33.136Z,98762.34
2019-06-27T13:36:04.739Z,98754.33
2019-06-27T13:38:36.326Z,98758.33
2019-06-27T13:41:08.207Z,98756.83
2019-06-27T13:43:39.837Z,98758.73
2019-06-27T13:46:11.514Z,98754.02
2019-06-27T13:48:43.163Z,98749.95
2019-06-27T13:51:14.795Z,98752.89
2019-06-27T13:53:46.462Z,98752.92
2019-06-27T13:56:18.058Z,98747.56
2019-06-27T13:58:49.633Z,98741.19
2019-06-27T14:01:21.228Z,98740.05
2019-06-27T14:03:52.806Z,98740.86
2019-06-27T14:06:24.436Z,98740.64
2019-06-27T14:08:56.035Z,98732.70
2019-06-27T14:11:27.626Z,98733.16
2019-06-27T14:13:59.186Z,98728.92
2019-06-27T14:16:30.851Z,98732.75
2019-06-27T14:19:02.395Z,98728.04
2019-06-27T14:21:34.008Z,98729.54
2019-06-27T14:24:05.593Z,98727.67
2019-06-27T14:26:37.340Z,98725.67
2019-06-27T14:29:08.916Z,98730.27
2019-06-27T14:31:40.520Z,98727.20
2019-06-27T14:34:12.139Z,98722.39
2019-06-27T14:36:44.769Z,98718.63
2019-06-27T14:39:16.365Z,98717.06
2019-06-27T14:41:47.940Z,98722.26
2019-06-27T14:44:19.558Z,98718.48
2019-06-27T14:46:51.199Z,98720.58
2019-06-27T14:49:22.801Z,98712.23
2019-06-27T14:51:55.463Z,98705.70
2019-06-27T14:54:27.088Z,98710.89
2019-06-27T14:56:58.661Z,98709.85
2019-06-27T14:59:30.288Z,98713.29
2019-06-27T15:02:01.871Z,98711.71
2019-06-27T15:04:33.461Z,98706.69
2019-06-27T15:07:05.134Z,98703.59
2019-06-27T15:09:36.758Z,98710.44
2019-06-27T15:12:08.341Z,98707.73
2019-06-27T15:14:39.912Z,98704.72
2019-06-27T15:17:11.505Z,98707.38
2019-06-27T15:19:43.097Z,98697.30
2019-06-27T15:22:14.667Z,98702.69
2019-06-27T15:24:46.347Z,98697.96
2019-06-27T15:27:17.947Z,98695.26
2019-06-27T15:29:57.027Z,98691.97
2019-06-27T15:32:28.643Z,98693.23
2019-06-27T15:35:00.455Z,98686.88
2019-06-27T15:37:32.618Z,98692.30
2019-06-27T15:40:04.555Z,98693.43
2019-06-27T15:42:36.150Z,98686.14
2019-06-27T15:45:08.209Z,98689.88
2019-06-27T15:47:40.777Z,98688.82
2019-06-27T15:50:12.635Z,98687.72
2019-06-27T15:52:44.256Z,98686.91
2019-06-27T15:55:15.942Z,98689.52
2019-06-27T15:57:47.512Z,98677.36
2019-06-27T16:00:20.349Z,98683.30
2019-06-27T16:02:51.929Z,98682.16
2019-06-27T16:05:23.645Z,98678.86
2019-06-27T16:07:55.336Z,98678.25
2019-06-27T16:10:26.929Z,98683.83
2019-06-27T16:13:02.480Z,98683.15
2019-06-27T16:15:32.501Z,98676.40
2019-06-27T16:18:04.480Z,98679.38
2019-06-27T16:20:36.151Z,98680.73
2019-06-27T16:23:07.706Z,98673.92
2019-06-27T16:25:39.327Z,98670.55
2019-06-27T16:28:10.909Z,98672.03
2019-06-27T16:30:42.477Z,98671.50
2019-06-27T16:33:14.172Z,98671.95
2019-06-27T16:35:45.971Z,98669.41
2019-06-27T16:38:17.592Z,98672.12
2019-06-27T16:40:49.242Z,98668.13
2019-06-27T16:43:22.125Z,98673.83
2019-06-27T16:45:53.782Z,98670.55
2019-06-27T16:48:25.407Z,98669.19
2019-06-27T16:50:56.999Z,98666.53
2019-06-27T16:53:28.661Z,98675.23
2019-06-27T16:56:00.273Z,98673.28
2019-06-27T16:58:32.315Z,98677.38
2019-06-27T17:01:04.007Z,98674.09
2019-06-27T17:03:35.654Z,98681.19
2019-06-27T17:06:07.234Z,98680.95
2019-06-27T17:08:38.933Z,98675.27
2019-06-27T17:11:10.710Z,98678.10
2019-06-27T17:13:42.426Z,98680.74
2019-06-27T17:16:14.071Z,98681.78
2019-06-27T17:18:46.833Z,98680.28
2019-06-27T17:21:18.495Z,98678.02
2019-06-27T17:23:50.035Z,98676.67
2019-06-27T17:26:21.703Z,98680.63
2019-06-27T17:28:53.335Z,98681.70
2019-06-27T17:31:25.224Z,98682.45
2019-06-27T17:33:56.824Z,98686.72
2019-06-27T17:36:28.571Z,98684.90
2019-06-27T17:39:00.268Z,98682.01
2019-06-27T17:41:31.982Z,98685.40
2019-06-27T17:44:03.573Z,98688.13
2019-06-27T17:46:35.308Z,98688.77
2019-06-27T17:49:06.917Z,98689.17
2019-06-27T17:51:38.696Z,98682.28
2019-06-27T17:54:10.276Z,98687.29
2019-06-27T17:56:41.915Z,98686.38
2019-06-27T17:59:13.520Z,98679.44
2019-06-27T18:01:45.242Z,98682.78
2019-06-27T18:04:16.976Z,98681.65
2019-06-27T18:06:48.716Z,98679.00
2019-06-27T18:09:20.392Z,98684.72
2019-06-27T18:11:52.050Z,98684.86
2019-06-27T18:14:24.093Z,98686.00
2019-06-27T18:16:56.796Z,98681.03
2019-06-27T18:19:28.415Z,98682.49
2019-06-27T18:22:00.012Z,98681.72
2019-06-27T18:24:32.618Z,98679.63
2019-06-27T18:27:04.207Z,98685.55
2019-06-27T18:29:35.939Z,98693.80
2019-06-27T18:32:07.552Z,98689.37
2019-06-27T18:34:39.238Z,98694.38
2019-06-27T18:37:10.831Z,98691.77
2019-06-27T18:39:42.435Z,98693.88
2019-06-27T18:42:14.015Z,98693.69
2019-06-27T18:44:45.603Z,98692.65
2019-06-27T18:47:17.217Z,98692.96
2019-06-27T18:49:48.867Z,98691.10
2019-06-27T18:52:20.504Z,98693.88
2019-06-27T18:54:52.175Z,98698.30
2019-06-27T18:57:23.845Z,98690.86
2019-06-27T18:59:55.482Z,98700.56
2019-06-27T19:02:27.115Z,98703.87
2019-06-27T19:04:58.703Z,98705.70
2019-06-27T19:07:44.458Z,98708.39
2019-06-27T19:10:04.328Z,98710.86
2019-06-27T19:12:35.966Z,98708.78
2019-06-27T19:15:08.005Z,98717.78
2019-06-27T19:17:39.581Z,98708.01
2019-06-27T19:20:30.310Z,98715.93
2019-06-27T19:23:30.040Z,98722.51
2019-06-27T19:26:02.221Z,98721.55
2019-06-27T19:28:33.818Z,98724.88
2019-06-27T19:31:05.444Z,98725.15
2019-06-27T19:33:37.052Z,98728.17
2019-06-27T19:36:08.723Z,98729.98
2019-06-27T19:38:40.436Z,98727.69
2019-06-27T19:41:12.023Z,98730.56
2019-06-27T19:43:43.629Z,98741.66
2019-06-27T19:46:15.246Z,98741.06
2019-06-27T19:48:46.926Z,98746.58
2019-06-27T19:51:18.514Z,98743.14
2019-06-27T19:53:50.209Z,98746.41
2019-06-27T19:56:22.395Z,98749.95
2019-06-27T19:58:54.017Z,98758.90
2019-06-27T20:01:25.624Z,98755.98
2019-06-27T20:03:57.211Z,98757.89
2019-06-27T20:06:28.784Z,98756.80
2019-06-27T20:09:00.433Z,98767.32
2019-06-27T20:11:33.693Z,98769.88
2019-06-27T20:14:05.312Z,98773.33
2019-06-27T20:16:36.963Z,98765.75
2019-06-27T20:19:08.550Z,98766.17
2019-06-27T20:21:40.183Z,98768.45
2019-06-27T20:24:11.800Z,98773.55
2019-06-27T20:26:43.382Z,98774.14
2019-06-27T20:29:15.048Z,98774.63
2019-06-27T20:31:46.674Z,98777.86
2019-06-27T20:34:18.327Z,98779.94
2019-06-27T20:36:49.959Z,98778.16
2019-06-27T20:39:21.589Z,98779.44
2019-06-27T20:41:53.261Z,98778.44
2019-06-27T20:44:26.944Z,98790.02
2019-06-27T20:46:58.558Z,98790.05
2019-06-27T20:49:30.162Z,98787.75
2019-06-27T20:52:01.759Z,98789.78
2019-06-27T20:54:33.392Z,98793.01
2019-06-27T20:57:04.972Z,98788.51
2019-06-27T20:59:36.569Z,98796.77
2019-06-27T21:02:08.177Z,98792.64
2019-06-27T21:04:39.764Z,98788.41
2019-06-27T21:07:11.321Z,98795.80
2019-06-27T21:09:42.953Z,98796.27
2019-06-27T21:12:15.660Z,98802.73
2019-06-27T21:14:47.276Z,98799.30
2019-06-27T21:17:18.897Z,98805.58
2019-06-27T21:19:50.493Z,98802.42
2019-06-27T21:22:22.061Z,98810.34
2019-06-27T21:24:53.611Z,98814.58
2019-06-27T21:27:25.389Z,98808.81
2019-06-27T21:29:56.954Z,98816.19
2019-06-27T21:32:31.894Z,98815.92
2019-06-27T21:35:01.866Z,98814.09
2019-06-27T21:37:33.477Z,98818.97
2019-06-27T21:40:05.540Z,98824.64
2019-06-27T21:42:37.142Z,98813.34
2019-06-27T21:45:09.024Z,98820.88
2019-06-27T21:47:40.599Z,98821.55
2019-06-27T21:50:12.850Z,98818.84
2019-06-27T21:52:44.445Z,98823.36
2019-06-27T21:55:16.327Z,98824.03
2019-06-27T21:57:47.925Z,98825.34
2019-06-27T22:00:20.638Z,98829.16
2019-06-27T22:02:53.831Z,98828.19
2019-06-27T22:05:25.417Z,98826.53
2019-06-27T22:07:57.001Z,98825.33
2019-06-27T22:10:28.586Z,98832.48
2019-06-27T22:13:00.312Z,98824.30
2019-06-27T22:15:31.954Z,98826.33
2019-06-27T22:18:03.602Z,98824.26
2019-06-27T22:20:35.205Z,98822.58
2019-06-27T22:23:06.802Z,98822.56
2019-06-27T22:25:40.889Z,98822.20
2019-06-27T22:28:12.675Z,98820.00
2019-06-27T22:30:44.293Z,98821.46
2019-06-27T22:33:15.874Z,98827.08
2019-06-27T22:35:47.444Z,98821.06
2019-06-27T22:38:36.531Z,98823.31
2019-06-27T22:41:25.955Z,98820.43
2019-06-27T22:44:16.133Z,98820.55
2019-06-27T22:47:05.324Z,98822.31
2019-06-27T22:49:36.367Z,98819.11
2019-06-27T22:52:45.579Z,98818.71
2019-06-27T22:55:22.119Z,98816.98
2019-06-27T22:57:53.676Z,98822.88
2019-06-27T23:00:25.361Z,98820.13
2019-06-27T23:02:56.945Z,98816.20
2019-06-27T23:05:28.546Z,98817.47
2019-06-27T23:08:00.124Z,98815.27
2019-06-27T23:10:31.698Z,98814.86
2019-06-27T23:13:03.249Z,98809.28
2019-06-27T23:15:34.860Z,98821.15
2019-06-27T23:18:06.619Z,98817.05
2019-06-27T23:20:38.199Z,98816.48
2019-06-27T23:23:09.803Z,98819.14
2019-06-27T23:25:41.386Z,98825.24
2019-06-27T23:28:12.961Z,98822.40
2019-06-27T23:30:44.511Z,98823.73
2019-06-27T23:33:16.103Z,98816.45
2019-06-27T23:35:47.683Z,98826.16
2019-06-27T23:38:19.254Z,98822.59
2019-06-27T23:40:50.833Z,98823.62
2019-06-27T23:43:23.476Z,98823.75
2019-06-27T23:45:55.043Z,98821.47
2019-06-27T23:48:26.607Z,98817.01
2019-06-27T23:50:58.185Z,98822.34
2019-06-27T23:53:29.771Z,98819.09
2019-06-27T23:56:01.384Z,98810.83
2019-06-27T23:58:32.958Z,98814.32
